Time;durP1;ratioP1;P1;durP2;ratioP2;P2;SDS_P1;SDS_P2;PMS_P1;PMS_P2;Temp;Humidity;BMP_temperature;BMP_pressure;BME280_temperature;BME280_humidity;BME280_pressure;Samples;Min_cycle;Max_cycle;Signal;HPM_P1;HPM_P2
2023/01/01 00:02:06;;;;;;;15.70;11.38;;;7.00;85.70;;;;;;5028687;28;20040;-52
2023/01/01 00:04:33;;;;;;;15.48;11.70;;;7.10;85.80;;;;;;5029918;28;20075;-53
2023/01/01 00:06:59;;;;;;;15.27;11.82;;;7.10;85.80;;;;;;5025392;28;20484;-58
2023/01/01 00:12:09;;;;;;;17.15;12.35;;;7.30;85.70;;;;;;5033504;28;20637;-59
2023/01/01 00:14:34;;;;;;;16.77;11.90;;;7.30;85.40;;;;;;5027206;28;20120;-59
2023/01/01 00:17:00;;;;;;;17.63;12.95;;;7.40;85.10;;;;;;5029248;28;20053;-57
2023/01/01 00:19:26;;;;;;;16.60;12.82;;;7.50;84.90;;;;;;5022279;28;20026;-56
2023/01/01 00:21:52;;;;;;;17.70;13.15;;;7.50;84.50;;;;;;5029993;28;20087;-51
2023/01/01 00:24:18;;;;;;;16.85;12.73;;;7.50;84.20;;;;;;5034140;28;20039;-52
2023/01/01 00:26:44;;;;;;;15.45;13.02;;;7.50;84.30;;;;;;5027958;28;20597;-48
2023/01/01 00:29:09;;;;;;;16.15;12.15;;;7.50;84.40;;;;;;5027686;28;20035;-50
2023/01/01 00:31:35;;;;;;;16.85;13.38;;;7.50;84.50;;;;;;5039224;28;20038;-54
2023/01/01 00:34:01;;;;;;;15.32;12.80;;;7.50;84.30;;;;;;5029891;28;20456;-51
2023/01/01 00:36:27;;;;;;;16.73;11.98;;;7.50;84.20;;;;;;5029557;28;20033;-58
2023/01/01 00:38:54;;;;;;;16.58;13.25;;;7.50;84.00;;;;;;5031476;28;20029;-58
2023/01/01 00:41:20;;;;;;;16.98;12.23;;;7.50;84.20;;;;;;5039884;28;20120;-59
2023/01/01 00:43:46;;;;;;;15.68;12.30;;;7.50;84.00;;;;;;5039951;28;20056;-59
2023/01/01 00:46:12;;;;;;;20.20;14.68;;;7.50;84.00;;;;;;5031020;28;20080;-56
2023/01/01 00:48:38;;;;;;;17.70;12.95;;;7.60;84.00;;;;;;5032414;28;20033;-56
2023/01/01 00:51:04;;;;;;;20.85;14.45;;;7.50;83.70;;;;;;5032118;28;20048;-55
2023/01/01 00:53:30;;;;;;;20.83;15.02;;;7.60;83.70;;;;;;5026057;28;20357;-54
2023/01/01 00:55:55;;;;;;;17.55;13.60;;;7.60;83.50;;;;;;5028277;28;20107;-56
2023/01/01 00:58:23;;;;;;;17.58;14.00;;;7.60;83.30;;;;;;5035883;28;20021;-56
2023/01/01 01:00:50;;;;;;;19.13;13.05;;;7.50;83.10;;;;;;5030646;28;20484;-55
2023/01/01 01:03:28;;;;;;;17.27;13.10;;;7.50;83.10;;;;;;5039130;28;20033;-56
2023/01/01 01:06:02;;;;;;;17.35;13.15;;;7.50;83.00;;;;;;5028558;28;20099;-64
2023/01/01 01:08:30;;;;;;;18.65;13.18;;;7.50;83.00;;;;;;5027553;28;20033;-62
2023/01/01 01:11:06;;;;;;;17.15;13.30;;;7.40;82.90;;;;;;5023605;28;20029;-57
2023/01/01 01:13:32;;;;;;;15.73;12.50;;;7.40;82.90;;;;;;5036001;28;20036;-57
2023/01/01 01:15:58;;;;;;;15.77;13.05;;;7.40;83.10;;;;;;5039253;28;20033;-60
2023/01/01 01:18:23;;;;;;;17.35;13.65;;;7.30;83.10;;;;;;5030531;28;20064;-60
2023/01/01 01:20:53;;;;;;;16.35;12.90;;;7.30;83.00;;;;;;5029111;28;20057;-56
2023/01/01 01:23:19;;;;;;;17.40;14.40;;;7.30;83.10;;;;;;5028698;28;20079;-52
2023/01/01 01:25:45;;;;;;;20.05;14.98;;;7.20;83.10;;;;;;5037411;28;20092;-57
2023/01/01 01:28:11;;;;;;;16.17;12.98;;;7.20;83.10;;;;;;5028427;28;20041;-57
2023/01/01 01:30:37;;;;;;;15.88;12.88;;;7.20;83.20;;;;;;5034352;28;20502;-60
2023/01/01 01:33:03;;;;;;;15.98;12.57;;;7.20;83.30;;;;;;5037354;28;20041;-58
2023/01/01 01:35:28;;;;;;;18.42;13.30;;;7.20;83.40;;;;;;5038984;28;20037;-58
2023/01/01 01:37:54;;;;;;;14.32;11.93;;;7.20;83.40;;;;;;5032542;28;20090;-59
2023/01/01 01:40:20;;;;;;;15.95;12.65;;;7.20;83.50;;;;;;5032501;28;20033;-55
2023/01/01 01:42:47;;;;;;;17.40;12.90;;;7.20;83.50;;;;;;5037983;28;20060;-52
2023/01/01 01:45:14;;;;;;;16.50;12.23;;;7.20;83.50;;;;;;5035327;28;20048;-55
2023/01/01 01:47:50;;;;;;;19.10;14.00;;;7.20;83.70;;;;;;5040467;28;20037;-54
2023/01/01 01:50:40;;;;;;;17.30;13.57;;;7.20;83.70;;;;;;5032507;28;20037;-56
2023/01/01 01:53:19;;;;;;;19.08;14.25;;;7.20;83.60;;;;;;5029407;28;20034;-56
2023/01/01 01:55:52;;;;;;;17.67;13.32;;;7.20;83.50;;;;;;5031470;28;20104;-53
2023/01/01 01:58:18;;;;;;;17.75;13.35;;;7.20;83.50;;;;;;5029344;28;20061;-52
2023/01/01 02:00:44;;;;;;;15.80;12.80;;;7.20;83.50;;;;;;5030155;28;20041;-52
2023/01/01 02:03:20;;;;;;;19.02;14.05;;;7.20;83.50;;;;;;5032971;28;20052;-54
2023/01/01 02:05:47;;;;;;;17.13;13.30;;;7.20;83.50;;;;;;5036041;28;20124;-57
2023/01/01 02:08:14;;;;;;;16.88;13.52;;;7.20;83.50;;;;;;5039419;28;20036;-55
2023/01/01 02:10:40;;;;;;;16.65;13.30;;;7.20;83.40;;;;;;5027701;28;20118;-67
2023/01/01 02:13:06;;;;;;;19.02;13.70;;;7.20;83.50;;;;;;5032758;28;20030;-66
2023/01/01 02:15:46;;;;;;;16.70;12.93;;;7.20;83.40;;;;;;5033090;28;20244;-58
2023/01/01 02:18:15;;;;;;;16.08;13.02;;;7.20;83.40;;;;;;5029950;28;20064;-52
2023/01/01 02:20:57;;;;;;;14.05;11.10;;;7.20;83.60;;;;;;5033823;28;20064;-67
2023/01/01 02:23:50;;;;;;;16.25;12.02;;;7.20;83.60;;;;;;5034273;28;20037;-64
2023/01/01 02:26:19;;;;;;;17.23;12.52;;;7.20;83.90;;;;;;5027862;28;20073;-59
2023/01/01 02:29:24;;;;;;;16.40;12.48;;;7.30;84.00;;;;;;5034673;28;20029;-59
2023/01/01 02:32:24;;;;;;;16.38;13.63;;;7.30;83.90;;;;;;5017084;28;20041;-53
2023/01/01 02:37:59;;;;;;;14.68;11.70;;;7.40;83.90;;;;;;5041032;28;20036;-54
2023/01/01 02:40:26;;;;;;;16.02;12.15;;;7.50;83.90;;;;;;5036821;28;20167;-52
2023/01/01 02:42:54;;;;;;;15.13;11.95;;;7.50;83.90;;;;;;5031860;28;20075;-49
2023/01/01 02:45:20;;;;;;;15.23;12.10;;;7.60;83.90;;;;;;5026999;28;20044;-70
2023/01/01 02:47:46;;;;;;;16.58;12.75;;;7.60;83.70;;;;;;5026819;28;20040;-68
2023/01/01 02:50:22;;;;;;;15.35;12.43;;;7.60;83.70;;;;;;5030379;28;20033;-69
2023/01/01 02:53:18;;;;;;;16.02;12.68;;;7.60;83.80;;;;;;5030431;28;20025;-67
2023/01/01 02:56:18;;;;;;;15.65;12.77;;;7.50;83.90;;;;;;5036582;28;20091;-56
2023/01/01 03:02:35;;;;;;;16.98;12.75;;;7.50;84.30;;;;;;5031766;28;20060;-56
2023/01/01 03:05:07;;;;;;;16.65;13.13;;;7.50;84.40;;;;;;5031147;28;20042;-57
2023/01/01 03:07:44;;;;;;;;;;;7.50;84.60;;;;;;5044654;28;20036;-59
2023/01/01 03:10:22;;;;;;;15.95;11.65;;;7.40;84.10;;;;;;5029941;28;20003;-60
2023/01/01 03:13:01;;;;;;;15.88;12.77;;;7.40;84.60;;;;;;5030500;28;20029;-56
2023/01/01 03:15:30;;;;;;;15.20;12.43;;;7.50;84.60;;;;;;5030209;28;20052;-55
2023/01/01 03:18:04;;;;;;;16.27;12.80;;;7.50;84.70;;;;;;5036485;28;20440;-55
2023/01/01 03:20:33;;;;;;;15.75;13.02;;;7.50;84.60;;;;;;5035386;28;20038;-53
2023/01/01 03:23:05;;;;;;;14.27;12.10;;;7.60;84.70;;;;;;5031380;28;20092;-52
2023/01/01 03:25:36;;;;;;;17.20;12.48;;;7.60;84.60;;;;;;5032596;28;20148;-50
2023/01/01 03:28:11;;;;;;;15.52;12.27;;;7.60;84.80;;;;;;5026685;28;20038;-53
2023/01/01 03:30:39;;;;;;;17.70;13.23;;;7.60;84.60;;;;;;5028552;28;20026;-52
2023/01/01 03:33:11;;;;;;;15.52;12.43;;;7.70;84.60;;;;;;5031524;28;20029;-53
2023/01/01 03:35:46;;;;;;;15.93;12.80;;;7.80;84.30;;;;;;5028947;28;20420;-59
2023/01/01 03:38:28;;;;;;;15.23;12.68;;;7.80;84.10;;;;;;5030762;28;20028;-58
2023/01/01 03:41:04;;;;;;;15.52;12.40;;;7.80;83.90;;;;;;5036153;28;20060;-59
2023/01/01 03:43:51;;;;;;;17.23;13.07;;;7.80;84.10;;;;;;5027413;28;20109;-59
2023/01/01 03:46:25;;;;;;;15.98;12.63;;;7.80;84.00;;;;;;5028361;28;20033;-58
2023/01/01 03:48:55;;;;;;;13.90;11.27;;;7.80;84.10;;;;;;5035271;28;20808;-53
2023/01/01 03:51:38;;;;;;;15.18;11.52;;;7.80;84.10;;;;;;5027115;28;20052;-56
2023/01/01 03:54:11;;;;;;;16.85;11.95;;;7.90;84.10;;;;;;5025612;28;20045;-55
2023/01/01 03:56:44;;;;;;;16.10;12.00;;;8.00;84.00;;;;;;5037096;28;20029;-68
2023/01/01 03:59:59;;;;;;;16.27;11.60;;;8.00;83.70;;;;;;5031323;28;20057;-67
2023/01/01 04:02:32;;;;;;;13.85;11.43;;;8.10;83.60;;;;;;5019489;28;20072;-67
2023/01/01 04:05:00;;;;;;;14.05;11.05;;;8.20;83.40;;;;;;5031526;28;20495;-67
2023/01/01 04:07:28;;;;;;;13.00;10.77;;;8.20;83.20;;;;;;5023912;28;20521;-59
2023/01/01 04:09:55;;;;;;;14.48;12.07;;;8.30;82.90;;;;;;5028236;28;20029;-58
2023/01/01 04:12:21;;;;;;;14.35;11.43;;;8.30;82.80;;;;;;5031143;28;20519;-67
2023/01/01 04:14:46;;;;;;;16.73;12.80;;;8.30;82.60;;;;;;5038013;28;20038;-69
2023/01/01 04:17:13;;;;;;;13.60;11.10;;;8.30;82.50;;;;;;5034916;28;20582;-65
2023/01/01 04:19:38;;;;;;;15.23;11.80;;;8.40;82.50;;;;;;5033003;28;20072;-64
2023/01/01 04:22:04;;;;;;;14.73;10.93;;;8.40;82.30;;;;;;5032033;28;20040;-64
2023/01/01 04:24:30;;;;;;;14.63;11.20;;;8.40;82.20;;;;;;5030570;28;20033;-63
2023/01/01 04:26:56;;;;;;;13.45;10.73;;;8.40;82.80;;;;;;5022046;28;20453;-58
2023/01/01 04:29:22;;;;;;;15.43;12.02;;;8.50;82.30;;;;;;5026493;28;20037;-58
2023/01/01 04:31:48;;;;;;;16.33;11.50;;;8.50;82.20;;;;;;5037072;28;20037;-53
2023/01/01 04:34:15;;;;;;;16.17;12.38;;;8.50;81.80;;;;;;5035494;28;20476;-53
2023/01/01 04:36:41;;;;;;;15.35;12.45;;;8.50;81.90;;;;;;5039317;28;20521;-55
2023/01/01 04:39:07;;;;;;;16.23;12.57;;;8.40;81.90;;;;;;5029801;28;20037;-54
2023/01/01 04:41:33;;;;;;;16.92;12.82;;;8.40;82.00;;;;;;5024321;28;20040;-51
2023/01/01 04:43:59;;;;;;;14.98;11.80;;;8.30;81.90;;;;;;5035290;28;20080;-51
2023/01/01 04:46:25;;;;;;;15.95;12.43;;;8.30;82.00;;;;;;5029554;28;20047;-54
2023/01/01 04:48:50;;;;;;;16.38;12.90;;;8.20;82.20;;;;;;5032258;28;20021;-48
2023/01/01 04:51:19;;;;;;;15.93;12.27;;;8.10;82.20;;;;;;5033724;28;20067;-56
2023/01/01 04:53:45;;;;;;;14.23;11.48;;;8.10;82.30;;;;;;5029609;28;20448;-55
2023/01/01 04:56:14;;;;;;;15.02;11.23;;;8.00;82.50;;;;;;5035781;28;20040;-58
2023/01/01 04:58:41;;;;;;;16.52;12.98;;;8.00;82.60;;;;;;5027246;28;20086;-59
2023/01/01 05:01:12;;;;;;;12.98;11.27;;;8.00;82.70;;;;;;5032904;28;20025;-58
2023/01/01 05:03:38;;;;;;;15.60;12.40;;;8.00;82.70;;;;;;5035536;28;20056;-58
2023/01/01 05:06:10;;;;;;;15.02;12.30;;;7.90;82.80;;;;;;5046073;28;20045;-51
2023/01/01 05:08:37;;;;;;;15.52;12.52;;;7.90;82.80;;;;;;5037348;28;20045;-52
2023/01/01 05:11:06;;;;;;;16.30;13.30;;;7.90;82.90;;;;;;5040121;28;20022;-57
2023/01/01 05:13:34;;;;;;;16.45;12.38;;;7.90;83.10;;;;;;5038765;28;20474;-58
2023/01/01 05:16:05;;;;;;;12.75;10.90;;;7.90;83.10;;;;;;5030530;28;20025;-58
2023/01/01 05:18:31;;;;;;;14.23;11.82;;;7.90;83.20;;;;;;5033596;28;20064;-61
2023/01/01 05:21:10;;;;;;;14.05;12.02;;;7.90;83.30;;;;;;5039548;28;20036;-55
2023/01/01 05:23:36;;;;;;;15.60;12.20;;;8.00;83.30;;;;;;5032855;28;20033;-56
2023/01/01 05:26:14;;;;;;;13.90;11.20;;;8.00;83.40;;;;;;5028199;28;20401;-52
2023/01/01 05:28:40;;;;;;;14.45;11.65;;;8.00;83.20;;;;;;5029300;28;20040;-53
2023/01/01 05:31:12;;;;;;;14.18;11.60;;;8.00;83.20;;;;;;5038713;28;20025;-57
2023/01/01 05:33:39;;;;;;;16.70;13.45;;;8.10;83.20;;;;;;5032489;28;20025;-57
2023/01/01 05:36:06;;;;;;;14.80;12.55;;;8.10;83.10;;;;;;5034067;28;20065;-57
2023/01/01 05:38:32;;;;;;;16.50;12.93;;;8.10;83.10;;;;;;5036131;28;20029;-57
2023/01/01 05:40:58;;;;;;;14.90;12.30;;;8.20;83.20;;;;;;5032035;28;20051;-57
2023/01/01 05:43:23;;;;;;;15.35;12.43;;;8.20;83.10;;;;;;5031665;28;20034;-56
2023/01/01 05:45:59;;;;;;;14.77;12.48;;;8.10;83.00;;;;;;5037230;28;20037;-57
2023/01/01 05:48:24;;;;;;;15.65;12.73;;;8.20;82.90;;;;;;5029449;28;20144;-56
2023/01/01 05:50:50;;;;;;;16.05;13.38;;;8.20;83.00;;;;;;5028468;28;20108;-57
2023/01/01 05:53:16;;;;;;;17.33;13.73;;;8.20;83.00;;;;;;5023149;28;20033;-58
2023/01/01 05:55:41;;;;;;;14.85;11.75;;;8.20;82.90;;;;;;5030083;28;20037;-51
2023/01/01 05:58:07;;;;;;;15.88;12.15;;;8.20;82.90;;;;;;5031227;28;20034;-48
2023/01/01 06:00:32;;;;;;;14.27;11.57;;;8.20;82.90;;;;;;5030716;28;20038;-58
2023/01/01 06:02:58;;;;;;;15.63;12.05;;;8.20;83.00;;;;;;5037052;28;20029;-58
2023/01/01 06:05:24;;;;;;;15.20;12.52;;;8.20;82.90;;;;;;5031866;28;20057;-62
2023/01/01 06:07:49;;;;;;;14.52;11.07;;;8.20;83.00;;;;;;5031052;28;20053;-68
2023/01/01 06:10:15;;;;;;;14.65;11.50;;;8.20;83.00;;;;;;5029714;28;20045;-61
2023/01/01 06:12:41;;;;;;;14.23;11.95;;;8.30;83.70;;;;;;5030449;28;20144;-57
2023/01/01 06:15:07;;;;;;;16.13;12.32;;;8.30;83.00;;;;;;5041764;28;20939;-57
2023/01/01 06:17:33;;;;;;;14.95;12.23;;;8.30;83.00;;;;;;5032229;28;20041;-57
2023/01/01 06:19:59;;;;;;;14.00;11.57;;;8.30;82.90;;;;;;5026007;28;20033;-57
2023/01/01 06:22:24;;;;;;;14.30;11.38;;;8.40;83.00;;;;;;5031057;28;20026;-58
2023/01/01 06:24:50;;;;;;;12.45;10.77;;;8.40;83.00;;;;;;5034542;28;21944;-57
2023/01/01 06:27:15;;;;;;;15.00;12.13;;;8.40;82.90;;;;;;5031908;28;20038;-55
2023/01/01 06:29:41;;;;;;;16.23;12.15;;;8.40;82.90;;;;;;5033031;28;20022;-54
2023/01/01 06:32:06;;;;;;;18.83;12.38;;;8.40;82.90;;;;;;5029043;28;20092;-50
2023/01/01 06:34:32;;;;;;;14.95;11.85;;;8.50;83.00;;;;;;5031701;28;20424;-56
2023/01/01 06:36:58;;;;;;;16.05;12.50;;;8.40;82.90;;;;;;5031020;28;20369;-49
2023/01/01 06:39:23;;;;;;;14.00;11.85;;;8.50;82.90;;;;;;5028863;28;20045;-52
2023/01/01 06:41:49;;;;;;;15.18;11.27;;;8.50;82.90;;;;;;5035479;28;20554;-56
2023/01/01 06:44:15;;;;;;;16.05;12.35;;;8.50;82.90;;;;;;5030475;28;20025;-55
2023/01/01 06:46:40;;;;;;;13.45;11.80;;;8.50;82.90;;;;;;5030899;28;20376;-57
2023/01/01 06:49:10;;;;;;;14.63;11.30;;;8.50;82.80;;;;;;5031163;28;20034;-57
2023/01/01 06:51:39;;;;;;;14.55;11.68;;;8.50;82.70;;;;;;5031111;28;23400;-66
2023/01/01 06:54:06;;;;;;;13.35;10.82;;;8.60;82.80;;;;;;5035842;28;20373;-65
2023/01/01 06:56:32;;;;;;;13.43;10.63;;;8.60;82.70;;;;;;5030512;28;20042;-56
2023/01/01 06:58:58;;;;;;;16.88;12.15;;;8.60;82.70;;;;;;5030499;28;20109;-56
2023/01/01 07:01:26;;;;;;;13.82;10.70;;;8.70;82.70;;;;;;5025254;28;20034;-56
2023/01/01 07:03:57;;;;;;;12.80;10.60;;;8.70;82.70;;;;;;5028951;28;20403;-56
2023/01/01 07:06:24;;;;;;;14.07;10.45;;;8.70;82.60;;;;;;5030619;28;20481;-57
2023/01/01 07:08:50;;;;;;;12.10;10.35;;;8.80;82.60;;;;;;5025442;28;20038;-57
2023/01/01 07:11:16;;;;;;;14.90;11.35;;;8.80;82.50;;;;;;5022049;28;20033;-59
2023/01/01 07:13:42;;;;;;;14.60;10.98;;;8.80;82.50;;;;;;5034964;28;20036;-58
2023/01/01 07:16:08;;;;;;;12.25;9.90;;;8.90;82.50;;;;;;5035371;28;20455;-58
2023/01/01 07:18:33;;;;;;;13.90;10.88;;;8.90;82.50;;;;;;5033182;28;20531;-57
2023/01/01 07:21:01;;;;;;;14.57;10.65;;;8.90;82.40;;;;;;5035365;28;20034;-60
2023/01/01 07:23:28;;;;;;;12.30;10.05;;;8.90;83.00;;;;;;5029563;28;20055;-66
2023/01/01 07:25:54;;;;;;;13.00;10.50;;;9.00;82.40;;;;;;5028367;28;20475;-58
2023/01/01 07:28:21;;;;;;;13.77;10.35;;;9.00;82.40;;;;;;5028565;28;20038;-57
2023/01/01 07:30:47;;;;;;;13.00;9.68;;;9.10;82.40;;;;;;5028980;28;20025;-58
2023/01/01 07:33:18;;;;;;;11.77;9.93;;;9.10;82.30;;;;;;5030837;28;20025;-57
2023/01/01 07:35:44;;;;;;;11.95;9.57;;;9.10;82.30;;;;;;5035945;28;20535;-58
2023/01/01 07:38:11;;;;;;;11.57;9.60;;;9.20;82.30;;;;;;5035097;28;20055;-57
2023/01/01 07:40:37;;;;;;;11.23;9.20;;;9.20;82.20;;;;;;5030045;28;20033;-63
2023/01/01 07:43:03;;;;;;;12.60;10.02;;;9.30;82.20;;;;;;5030330;28;20037;-66
2023/01/01 07:45:28;;;;;;;11.45;9.20;;;9.40;82.10;;;;;;5034891;28;20041;-57
2023/01/01 07:47:56;;;;;;;11.85;9.55;;;9.50;82.00;;;;;;5034537;28;20099;-58
2023/01/01 07:50:23;;;;;;;12.70;10.20;;;9.60;81.90;;;;;;5037291;28;20030;-57
2023/01/01 07:52:49;;;;;;;13.10;9.68;;;9.70;81.70;;;;;;5029731;28;20460;-57
2023/01/01 07:55:16;;;;;;;12.85;9.60;;;9.70;81.40;;;;;;5029272;28;20076;-57
2023/01/01 07:57:43;;;;;;;13.38;10.02;;;9.80;81.20;;;;;;5037469;28;20075;-58
2023/01/01 08:00:12;;;;;;;12.55;9.88;;;9.80;81.10;;;;;;5022567;28;20029;-58
2023/01/01 08:02:37;;;;;;;14.40;10.32;;;9.90;81.10;;;;;;5028802;28;20485;-57
2023/01/01 08:05:03;;;;;;;11.80;9.95;;;10.00;81.10;;;;;;5026023;28;20124;-58
2023/01/01 08:07:29;;;;;;;12.82;10.15;;;10.00;80.90;;;;;;5026378;28;20021;-65
2023/01/01 08:09:55;;;;;;;14.93;10.82;;;10.10;80.80;;;;;;5030405;28;20090;-66
2023/01/01 08:12:20;;;;;;;13.13;10.43;;;10.10;80.60;;;;;;5037666;28;20025;-66
2023/01/01 08:14:46;;;;;;;12.98;10.35;;;10.20;80.50;;;;;;5032759;28;20033;-66
2023/01/01 08:17:11;;;;;;;13.05;10.18;;;10.20;80.40;;;;;;5038902;28;20053;-66
2023/01/01 08:19:37;;;;;;;13.63;9.40;;;10.20;80.50;;;;;;5029942;28;20101;-66
2023/01/01 08:22:03;;;;;;;12.32;8.85;;;10.30;80.60;;;;;;5025115;28;20752;-51
2023/01/01 08:24:28;;;;;;;12.40;9.52;;;10.30;80.50;;;;;;5031765;28;20464;-52
2023/01/01 08:26:54;;;;;;;11.52;9.32;;;10.30;80.30;;;;;;5027437;28;20037;-57
2023/01/01 08:29:20;;;;;;;11.57;9.13;;;10.40;80.20;;;;;;5026222;28;20468;-58
2023/01/01 08:31:46;;;;;;;10.70;8.88;;;10.40;80.10;;;;;;5025227;28;20037;-57
2023/01/01 08:34:11;;;;;;;12.32;9.52;;;10.40;80.20;;;;;;5025071;28;20038;-59
2023/01/01 08:36:39;;;;;;;9.95;8.75;;;10.40;80.20;;;;;;5028594;28;20036;-56
2023/01/01 08:39:06;;;;;;;12.65;8.85;;;10.40;80.40;;;;;;5033720;28;20455;-57
2023/01/01 08:41:31;;;;;;;9.43;8.23;;;10.40;80.30;;;;;;5037064;28;20478;-56
2023/01/01 08:43:57;;;;;;;11.52;8.25;;;10.40;80.90;;;;;;5034793;28;20104;-56
2023/01/01 08:46:23;;;;;;;10.30;8.20;;;10.50;80.30;;;;;;5032166;28;20041;-58
2023/01/01 08:48:48;;;;;;;10.48;9.18;;;10.50;80.40;;;;;;5033008;28;20025;-58
2023/01/01 08:51:14;;;;;;;12.55;9.65;;;10.60;80.30;;;;;;5026600;28;20052;-59
2023/01/01 08:53:40;;;;;;;10.57;8.93;;;10.60;80.30;;;;;;5030331;28;20033;-58
2023/01/01 08:56:09;;;;;;;11.40;9.00;;;10.60;80.20;;;;;;5032929;28;20053;-52
2023/01/01 08:58:36;;;;;;;10.57;8.30;;;10.60;80.10;;;;;;5031972;28;20034;-58
2023/01/01 09:01:03;;;;;;;9.80;8.38;;;10.70;80.10;;;;;;5029122;28;20052;-59
2023/01/01 09:03:29;;;;;;;9.73;8.55;;;10.70;80.10;;;;;;5040927;28;20394;-59
2023/01/01 09:05:55;;;;;;;10.20;8.23;;;10.70;80.10;;;;;;5036994;28;20038;-57
2023/01/01 09:08:21;;;;;;;10.50;8.48;;;10.70;80.10;;;;;;5032609;28;20105;-57
2023/01/01 09:10:47;;;;;;;9.13;8.15;;;10.70;80.10;;;;;;5032219;28;20136;-66
2023/01/01 09:13:16;;;;;;;10.70;8.35;;;10.80;80.20;;;;;;5036535;28;20464;-67
2023/01/01 09:15:42;;;;;;;11.60;8.65;;;10.80;80.10;;;;;;5038087;28;20063;-52
2023/01/01 09:18:09;;;;;;;9.68;8.15;;;10.80;80.00;;;;;;5041449;28;20105;-52
2023/01/01 09:20:35;;;;;;;10.32;8.30;;;10.80;80.10;;;;;;5038798;28;20033;-65
2023/01/01 09:23:01;;;;;;;10.30;8.70;;;10.80;80.00;;;;;;5034236;28;20033;-67
2023/01/01 09:25:27;;;;;;;9.55;7.30;;;10.80;80.00;;;;;;5034343;28;20050;-58
2023/01/01 09:28:04;;;;;;;10.13;8.35;;;10.80;80.00;;;;;;5038522;28;20464;-60
2023/01/01 09:30:30;;;;;;;10.10;7.38;;;10.80;79.90;;;;;;5039462;28;20440;-67
2023/01/01 09:32:55;;;;;;;8.65;7.72;;;10.80;80.00;;;;;;5021535;28;20037;-68
2023/01/01 09:35:21;;;;;;;9.50;7.47;;;10.80;79.90;;;;;;5023547;28;20422;-67
2023/01/01 09:37:47;;;;;;;8.85;7.90;;;10.90;80.00;;;;;;5037526;28;20456;-68
2023/01/01 09:40:33;;;;;;;8.57;7.63;;;10.90;79.90;;;;;;5041570;28;20516;-67
2023/01/01 09:43:25;;;;;;;9.13;7.60;;;11.00;79.80;;;;;;5033722;28;20029;-67
2023/01/01 09:46:05;;;;;;;10.02;7.65;;;11.00;79.80;;;;;;5033259;28;20037;-57
2023/01/01 09:48:33;;;;;;;10.20;7.93;;;11.10;79.80;;;;;;5032716;28;20029;-57
2023/01/01 09:51:02;;;;;;;9.98;7.80;;;11.10;79.80;;;;;;5040009;28;20026;-53
2023/01/01 09:53:37;;;;;;;10.77;8.07;;;11.20;79.70;;;;;;5041537;28;20030;-52
2023/01/01 09:56:04;;;;;;;9.90;8.15;;;11.20;79.60;;;;;;5036040;28;20102;-60
2023/01/01 09:58:35;;;;;;;10.40;8.40;;;11.30;79.60;;;;;;5037737;28;20033;-57
2023/01/01 10:01:18;;;;;;;9.80;8.30;;;11.30;79.50;;;;;;5025707;28;20071;-53
2023/01/01 10:03:53;;;;;;;11.50;8.00;;;11.40;79.40;;;;;;5037056;28;20057;-54
2023/01/01 10:06:29;;;;;;;9.70;8.15;;;11.40;79.30;;;;;;5033999;28;20049;-66
2023/01/01 10:09:26;;;;;;;9.23;7.75;;;11.40;79.20;;;;;;5034778;28;20089;-66
2023/01/01 10:12:06;;;;;;;8.82;7.43;;;11.50;79.10;;;;;;5038532;28;20030;-57
2023/01/01 10:14:36;;;;;;;8.73;7.22;;;11.50;79.10;;;;;;5047229;28;20033;-58
2023/01/01 10:17:12;;;;;;;8.57;7.47;;;11.60;79.20;;;;;;5041055;28;20452;-68
2023/01/01 10:19:48;;;;;;;10.45;7.88;;;11.60;79.10;;;;;;5043825;28;20041;-68
2023/01/01 10:22:22;;;;;;;8.25;6.60;;;11.70;79.00;;;;;;5034668;28;20029;-59
2023/01/01 10:24:57;;;;;;;10.27;7.57;;;11.80;79.00;;;;;;5040478;28;20435;-59
2023/01/01 10:27:28;;;;;;;8.30;6.65;;;11.80;79.00;;;;;;5042252;28;20044;-65
2023/01/01 10:29:53;;;;;;;;;;;11.90;78.80;;;;;;5033355;28;20878;-66
2023/01/01 10:32:31;;;;;;;8.20;6.90;;;11.90;78.90;;;;;;5027943;28;19959;-58
2023/01/01 10:34:58;;;;;;;8.32;6.95;;;12.00;78.80;;;;;;5041493;28;20376;-57
2023/01/01 10:37:27;;;;;;;10.10;7.50;;;12.00;78.70;;;;;;5040098;28;20041;-66
2023/01/01 10:39:54;;;;;;;7.70;6.68;;;12.00;78.60;;;;;;5037098;28;20033;-67
2023/01/01 10:42:19;;;;;;;7.90;6.65;;;12.10;78.60;;;;;;5036990;28;20111;-57
2023/01/01 10:44:45;;;;;;;8.10;6.60;;;12.10;78.60;;;;;;5038213;28;20104;-56
2023/01/01 10:47:28;;;;;;;9.43;7.03;;;12.20;78.60;;;;;;5044875;28;20083;-55
2023/01/01 10:49:59;;;;;;;9.07;6.95;;;12.20;78.30;;;;;;5051951;28;20040;-57
2023/01/01 10:52:30;;;;;;;9.55;7.05;;;12.20;78.30;;;;;;5034352;28;20025;-54
2023/01/01 10:54:57;;;;;;;8.55;6.93;;;12.30;78.40;;;;;;5036729;28;20049;-52
2023/01/01 10:57:26;;;;;;;9.18;7.28;;;12.30;78.40;;;;;;5032619;28;20453;-57
2023/01/01 10:59:52;;;;;;;9.15;6.75;;;12.40;78.40;;;;;;5029310;28;20507;-56
2023/01/01 11:02:27;;;;;;;9.55;7.40;;;12.40;78.30;;;;;;5030979;28;20032;-49
2023/01/01 11:05:11;;;;;;;10.70;7.15;;;12.50;78.20;;;;;;5034887;28;20098;-50
2023/01/01 11:07:40;;;;;;;8.45;6.78;;;12.50;78.10;;;;;;5034842;28;22084;-51
2023/01/01 11:10:14;;;;;;;7.93;6.53;;;12.50;78.00;;;;;;5045702;28;20112;-50
2023/01/01 11:12:40;;;;;;;8.48;7.28;;;12.50;77.90;;;;;;5032471;28;20034;-52
2023/01/01 11:15:06;;;;;;;7.03;6.00;;;12.50;77.80;;;;;;5032107;28;20033;-52
2023/01/01 11:17:35;;;;;;;7.75;6.50;;;12.60;77.90;;;;;;5032671;28;20461;-50
2023/01/01 11:20:02;;;;;;;8.38;6.25;;;12.60;77.90;;;;;;5041332;28;20033;-54
2023/01/01 11:22:47;;;;;;;8.45;6.47;;;12.60;77.80;;;;;;5041701;28;20644;-59
2023/01/01 11:25:24;;;;;;;7.88;6.60;;;12.60;77.70;;;;;;5029451;28;20041;-59
2023/01/01 11:27:50;;;;;;;9.02;5.97;;;12.60;77.60;;;;;;5031370;28;20037;-57
2023/01/01 11:30:20;;;;;;;6.95;5.82;;;12.60;77.70;;;;;;5035110;28;20513;-57
2023/01/01 11:32:47;;;;;;;6.43;5.60;;;12.60;77.50;;;;;;5031746;28;20025;-54
2023/01/01 11:35:25;;;;;;;7.70;6.32;;;12.60;77.50;;;;;;5032081;28;20069;-54
2023/01/01 11:37:53;;;;;;;7.40;6.10;;;12.70;77.50;;;;;;5034104;28;20105;-60
2023/01/01 11:40:34;;;;;;;6.60;5.65;;;12.70;77.40;;;;;;5031316;28;20061;-59
2023/01/01 11:43:02;;;;;;;7.80;5.88;;;12.70;77.30;;;;;;5046790;28;20047;-60
2023/01/01 11:45:33;;;;;;;6.82;6.10;;;12.70;77.40;;;;;;5040135;28;20048;-65
2023/01/01 11:48:00;;;;;;;;;;;12.70;77.30;;;;;;5041900;28;20029;-65
2023/01/01 11:50:40;;;;;;;6.95;5.60;;;12.60;77.20;;;;;;5041120;28;19912;-53
2023/01/01 11:53:30;;;;;;;6.68;5.20;;;12.60;77.30;;;;;;5029962;28;20092;-51
2023/01/01 11:56:15;;;;;;;6.40;5.45;;;12.60;77.30;;;;;;5040808;28;20040;-58
2023/01/01 11:58:55;;;;;;;6.25;5.07;;;12.60;77.30;;;;;;5032751;28;20033;-58
2023/01/01 12:01:30;;;;;;;6.90;5.18;;;12.60;77.40;;;;;;5027263;28;20040;-57
2023/01/01 12:04:22;;;;;;;6.57;5.43;;;12.60;77.40;;;;;;5033603;28;20060;-58
2023/01/01 12:07:06;;;;;;;;;;;12.60;77.40;;;;;;5033533;28;20502;-58
2023/01/01 12:09:54;;;;;;;6.20;5.43;;;12.50;77.30;;;;;;5033186;28;19920;-59
2023/01/01 12:12:41;;;;;;;6.38;5.28;;;12.60;77.50;;;;;;5031107;28;20025;-52
2023/01/01 12:15:33;;;;;;;8.95;5.45;;;12.60;77.40;;;;;;5041043;28;20036;-54
2023/01/01 12:18:01;;;;;;;;;;;12.70;77.50;;;;;;5035862;28;20022;-52
2023/01/01 12:20:52;;;;;;;6.57;5.32;;;12.70;77.60;;;;;;5031886;28;20379;-58
2023/01/01 12:23:18;;;;;;;6.05;5.05;;;12.70;77.40;;;;;;5030927;28;20036;-59
2023/01/01 12:25:51;;;;;;;6.13;4.75;;;12.80;77.40;;;;;;5040105;28;20040;-58
2023/01/01 12:28:40;;;;;;;6.18;5.22;;;12.80;77.40;;;;;;5042851;28;20033;-58
2023/01/01 12:31:14;;;;;;;6.05;4.90;;;12.90;77.30;;;;;;5027692;28;20540;-58
2023/01/01 12:34:24;;;;;;;5.22;4.53;;;12.90;77.30;;;;;;5041630;28;20028;-57
2023/01/01 12:36:56;;;;;;;6.15;4.55;;;12.90;77.10;;;;;;5024892;28;20099;-58
2023/01/01 12:39:58;;;;;;;6.78;5.30;;;13.00;77.10;;;;;;5029836;28;20080;-58
2023/01/01 12:43:08;;;;;;;6.07;4.75;;;13.00;76.90;;;;;;5038707;28;20499;-59
2023/01/01 12:46:00;;;;;;;5.32;4.45;;;13.10;76.80;;;;;;5027026;28;20059;-55
2023/01/01 12:48:25;;;;;;;5.15;4.15;;;13.10;76.80;;;;;;5028649;28;20029;-54
2023/01/01 12:51:05;;;;;;;5.70;4.75;;;13.20;76.70;;;;;;5033645;28;20297;-59
2023/01/01 12:54:03;;;;;;;5.72;4.32;;;13.20;76.60;;;;;;5029584;28;20460;-59
2023/01/01 12:57:05;;;;;;;6.47;4.55;;;13.20;76.40;;;;;;5028087;28;20033;-58
2023/01/01 12:59:38;;;;;;;5.07;4.10;;;13.20;76.40;;;;;;5027339;28;20033;-58
2023/01/01 13:02:17;;;;;;;5.88;4.57;;;13.30;76.30;;;;;;5031329;28;20030;-56
2023/01/01 13:04:45;;;;;;;5.47;4.45;;;13.30;76.10;;;;;;5030176;28;20064;-52
2023/01/01 13:07:12;;;;;;;5.47;4.25;;;13.30;76.00;;;;;;5030531;28;20041;-59
2023/01/01 13:09:44;;;;;;;5.32;4.25;;;13.30;76.00;;;;;;5040251;28;20115;-58